sensor_id;sensor_type;location;lat;lon;timestamp;P1;durP1;ratioP1;P2;durP2;ratioP2
54665;SDS011;40566;50.006;36.180;2022-07-12T00:03:28;3.83;;;1.50;;
54665;SDS011;40566;50.006;36.180;2022-07-12T00:08:29;2.83;;;1.60;;
54665;SDS011;40566;50.006;36.180;2022-07-12T00:13:30;3.83;;;1.70;;
54665;SDS011;40566;50.006;36.180;2022-07-12T00:18:31;3.05;;;1.48;;
54665;SDS011;40566;50.006;36.180;2022-07-12T00:23:32;4.38;;;1.67;;
54665;SDS011;40566;50.006;36.180;2022-07-12T00:28:32;4.22;;;1.70;;
54665;SDS011;40566;50.006;36.180;2022-07-12T00:33:33;3.58;;;1.88;;
54665;SDS011;40566;50.006;36.180;2022-07-12T00:38:34;5.53;;;1.80;;
54665;SDS011;40566;50.006;36.180;2022-07-12T00:43:34;6.05;;;1.92;;
54665;SDS011;40566;50.006;36.180;2022-07-12T00:48:35;7.75;;;1.95;;
54665;SDS011;40566;50.006;36.180;2022-07-12T00:53:36;4.63;;;1.90;;
54665;SDS011;40566;50.006;36.180;2022-07-12T00:58:37;5.03;;;1.92;;
54665;SDS011;40566;50.006;36.180;2022-07-12T01:03:39;3.58;;;1.60;;
54665;SDS011;40566;50.006;36.180;2022-07-12T01:08:41;4.10;;;1.80;;
54665;SDS011;40566;50.006;36.180;2022-07-12T01:13:42;6.05;;;2.22;;
54665;SDS011;40566;50.006;36.180;2022-07-12T01:18:44;3.22;;;1.75;;
54665;SDS011;40566;50.006;36.180;2022-07-12T01:23:45;8.27;;;2.33;;
54665;SDS011;40566;50.006;36.180;2022-07-12T01:28:47;6.40;;;1.85;;
54665;SDS011;40566;50.006;36.180;2022-07-12T01:33:48;8.90;;;2.35;;
54665;SDS011;40566;50.006;36.180;2022-07-12T01:38:50;5.35;;;2.22;;
54665;SDS011;40566;50.006;36.180;2022-07-12T01:43:51;6.05;;;2.03;;
54665;SDS011;40566;50.006;36.180;2022-07-12T01:48:52;4.82;;;2.22;;
54665;SDS011;40566;50.006;36.180;2022-07-12T01:53:53;6.22;;;2.35;;
54665;SDS011;40566;50.006;36.180;2022-07-12T01:58:54;6.03;;;2.28;;
54665;SDS011;40566;50.006;36.180;2022-07-12T02:03:54;5.10;;;2.22;;
54665;SDS011;40566;50.006;36.180;2022-07-12T02:08:56;4.10;;;1.98;;
54665;SDS011;40566;50.006;36.180;2022-07-12T02:13:57;6.78;;;2.35;;
54665;SDS011;40566;50.006;36.180;2022-07-12T02:18:57;5.78;;;2.33;;
54665;SDS011;40566;50.006;36.180;2022-07-12T02:23:58;4.13;;;2.00;;
54665;SDS011;40566;50.006;36.180;2022-07-12T02:29:00;5.28;;;2.10;;
54665;SDS011;40566;50.006;36.180;2022-07-12T02:34:01;4.25;;;1.98;;
54665;SDS011;40566;50.006;36.180;2022-07-12T02:39:02;6.57;;;2.45;;
54665;SDS011;40566;50.006;36.180;2022-07-12T02:44:04;5.93;;;1.98;;
54665;SDS011;40566;50.006;36.180;2022-07-12T02:49:05;4.25;;;2.00;;
54665;SDS011;40566;50.006;36.180;2022-07-12T02:54:06;5.43;;;1.90;;
54665;SDS011;40566;50.006;36.180;2022-07-12T03:11:38;8.63;;;2.03;;
54665;SDS011;40566;50.006;36.180;2022-07-12T03:16:38;2.70;;;1.70;;
54665;SDS011;40566;50.006;36.180;2022-07-12T03:21:39;4.03;;;1.70;;
54665;SDS011;40566;50.006;36.180;2022-07-12T03:26:39;4.72;;;1.92;;
54665;SDS011;40566;50.006;36.180;2022-07-12T03:31:40;6.30;;;1.85;;
54665;SDS011;40566;50.006;36.180;2022-07-12T03:36:41;7.22;;;2.60;;
54665;SDS011;40566;50.006;36.180;2022-07-12T03:41:41;5.28;;;2.28;;
54665;SDS011;40566;50.006;36.180;2022-07-12T03:46:42;4.90;;;1.88;;
54665;SDS011;40566;50.006;36.180;2022-07-12T03:51:42;4.95;;;2.42;;
54665;SDS011;40566;50.006;36.180;2022-07-12T03:56:43;5.80;;;2.00;;
54665;SDS011;40566;50.006;36.180;2022-07-12T04:02:02;8.27;;;2.63;;
54665;SDS011;40566;50.006;36.180;2022-07-12T04:07:03;5.82;;;2.40;;
54665;SDS011;40566;50.006;36.180;2022-07-12T04:12:05;5.22;;;2.05;;
54665;SDS011;40566;50.006;36.180;2022-07-12T04:17:06;5.88;;;2.40;;
54665;SDS011;40566;50.006;36.180;2022-07-12T04:22:07;6.25;;;2.08;;
54665;SDS011;40566;50.006;36.180;2022-07-12T04:27:07;6.75;;;2.40;;
54665;SDS011;40566;50.006;36.180;2022-07-12T04:32:08;10.65;;;3.13;;
54665;SDS011;40566;50.006;36.180;2022-07-12T04:37:08;3.85;;;1.80;;
54665;SDS011;40566;50.006;36.180;2022-07-12T04:42:09;4.72;;;2.25;;
54665;SDS011;40566;50.006;36.180;2022-07-12T04:47:10;5.85;;;2.40;;
54665;SDS011;40566;50.006;36.180;2022-07-12T04:52:11;4.40;;;2.30;;
54665;SDS011;40566;50.006;36.180;2022-07-12T04:57:11;5.55;;;2.10;;
54665;SDS011;40566;50.006;36.180;2022-07-12T05:02:12;5.85;;;2.10;;
54665;SDS011;40566;50.006;36.180;2022-07-12T05:07:13;5.03;;;2.17;;
54665;SDS011;40566;50.006;36.180;2022-07-12T05:12:13;6.40;;;2.28;;
54665;SDS011;40566;50.006;36.180;2022-07-12T05:17:14;8.40;;;2.58;;
54665;SDS011;40566;50.006;36.180;2022-07-12T05:22:14;6.85;;;2.22;;
54665;SDS011;40566;50.006;36.180;2022-07-12T05:27:15;12.88;;;2.60;;
54665;SDS011;40566;50.006;36.180;2022-07-12T05:32:16;16.58;;;3.45;;
54665;SDS011;40566;50.006;36.180;2022-07-12T05:37:16;20.40;;;7.93;;
54665;SDS011;40566;50.006;36.180;2022-07-12T05:42:17;19.55;;;6.55;;
54665;SDS011;40566;50.006;36.180;2022-07-12T05:47:18;8.50;;;2.70;;
54665;SDS011;40566;50.006;36.180;2022-07-12T05:52:18;6.35;;;2.95;;
54665;SDS011;40566;50.006;36.180;2022-07-12T05:57:38;7.43;;;3.30;;
54665;SDS011;40566;50.006;36.180;2022-07-12T06:02:39;6.90;;;2.40;;
54665;SDS011;40566;50.006;36.180;2022-07-12T06:07:40;3.80;;;1.90;;
54665;SDS011;40566;50.006;36.180;2022-07-12T06:12:41;6.95;;;2.22;;
54665;SDS011;40566;50.006;36.180;2022-07-12T06:17:42;6.05;;;2.38;;
54665;SDS011;40566;50.006;36.180;2022-07-12T06:22:43;8.15;;;3.10;;
54665;SDS011;40566;50.006;36.180;2022-07-12T06:27:43;3.92;;;1.83;;
54665;SDS011;40566;50.006;36.180;2022-07-12T06:32:45;4.93;;;1.70;;
54665;SDS011;40566;50.006;36.180;2022-07-12T06:37:49;2.67;;;1.70;;
54665;SDS011;40566;50.006;36.180;2022-07-12T06:42:50;5.95;;;1.80;;
54665;SDS011;40566;50.006;36.180;2022-07-12T06:47:51;3.97;;;2.03;;
54665;SDS011;40566;50.006;36.180;2022-07-12T06:52:52;4.43;;;2.05;;
54665;SDS011;40566;50.006;36.180;2022-07-12T06:57:53;5.38;;;1.95;;
54665;SDS011;40566;50.006;36.180;2022-07-12T07:02:53;4.10;;;1.95;;
54665;SDS011;40566;50.006;36.180;2022-07-12T07:07:54;5.97;;;2.28;;
54665;SDS011;40566;50.006;36.180;2022-07-12T07:12:55;5.03;;;2.30;;
54665;SDS011;40566;50.006;36.180;2022-07-12T07:17:56;5.13;;;2.63;;
54665;SDS011;40566;50.006;36.180;2022-07-12T07:22:57;6.93;;;3.13;;
54665;SDS011;40566;50.006;36.180;2022-07-12T07:27:57;4.22;;;1.83;;
54665;SDS011;40566;50.006;36.180;2022-07-12T07:32:58;3.85;;;1.83;;
54665;SDS011;40566;50.006;36.180;2022-07-12T07:37:58;2.95;;;1.60;;
54665;SDS011;40566;50.006;36.180;2022-07-12T07:42:59;6.15;;;3.60;;
54665;SDS011;40566;50.006;36.180;2022-07-12T07:48:00;5.25;;;2.60;;
54665;SDS011;40566;50.006;36.180;2022-07-12T07:53:01;3.40;;;1.90;;
54665;SDS011;40566;50.006;36.180;2022-07-12T07:58:02;7.35;;;2.00;;
54665;SDS011;40566;50.006;36.180;2022-07-12T08:03:02;3.58;;;1.85;;
54665;SDS011;40566;50.006;36.180;2022-07-12T08:08:03;3.70;;;1.90;;
54665;SDS011;40566;50.006;36.180;2022-07-12T08:13:04;2.70;;;1.60;;
54665;SDS011;40566;50.006;36.180;2022-07-12T08:18:06;3.45;;;1.88;;
54665;SDS011;40566;50.006;36.180;2022-07-12T08:23:07;2.53;;;1.45;;
54665;SDS011;40566;50.006;36.180;2022-07-12T08:28:08;2.33;;;1.33;;
54665;SDS011;40566;50.006;36.180;2022-07-12T08:33:09;3.92;;;1.70;;
54665;SDS011;40566;50.006;36.180;2022-07-12T08:38:09;2.85;;;1.52;;
54665;SDS011;40566;50.006;36.180;2022-07-12T08:43:10;2.72;;;1.60;;
54665;SDS011;40566;50.006;36.180;2022-07-12T08:48:11;2.50;;;1.45;;
54665;SDS011;40566;50.006;36.180;2022-07-12T08:53:12;3.22;;;1.30;;
54665;SDS011;40566;50.006;36.180;2022-07-12T08:58:16;2.25;;;1.20;;
54665;SDS011;40566;50.006;36.180;2022-07-12T09:03:18;3.05;;;1.40;;
54665;SDS011;40566;50.006;36.180;2022-07-12T09:08:29;2.05;;;1.10;;
54665;SDS011;40566;50.006;36.180;2022-07-12T09:18:51;2.17;;;1.15;;
54665;SDS011;40566;50.006;36.180;2022-07-12T09:24:11;2.67;;;1.25;;
54665;SDS011;40566;50.006;36.180;2022-07-12T09:29:12;1.88;;;1.00;;
54665;SDS011;40566;50.006;36.180;2022-07-12T09:34:14;7.65;;;2.60;;
54665;SDS011;40566;50.006;36.180;2022-07-12T09:39:33;15.52;;;3.92;;
54665;SDS011;40566;50.006;36.180;2022-07-12T09:44:34;3.10;;;1.50;;
54665;SDS011;40566;50.006;36.180;2022-07-12T09:49:35;4.47;;;1.10;;
54665;SDS011;40566;50.006;36.180;2022-07-12T09:54:38;2.28;;;1.10;;
54665;SDS011;40566;50.006;36.180;2022-07-12T09:59:40;3.53;;;1.58;;
54665;SDS011;40566;50.006;36.180;2022-07-12T10:04:42;1.33;;;0.95;;
54665;SDS011;40566;50.006;36.180;2022-07-12T10:09:43;3.22;;;1.10;;
54665;SDS011;40566;50.006;36.180;2022-07-12T10:14:45;2.20;;;1.10;;
54665;SDS011;40566;50.006;36.180;2022-07-12T10:19:49;2.58;;;1.30;;
54665;SDS011;40566;50.006;36.180;2022-07-12T10:30:26;1.17;;;1.00;;
54665;SDS011;40566;50.006;36.180;2022-07-12T10:35:28;4.38;;;1.17;;
54665;SDS011;40566;50.006;36.180;2022-07-12T10:40:33;3.53;;;1.02;;
54665;SDS011;40566;50.006;36.180;2022-07-12T10:45:35;2.15;;;1.13;;
54665;SDS011;40566;50.006;36.180;2022-07-12T11:01:04;2.15;;;1.00;;
54665;SDS011;40566;50.006;36.180;2022-07-12T11:06:10;0.80;;;0.60;;
54665;SDS011;40566;50.006;36.180;2022-07-12T11:11:15;0.90;;;0.80;;
54665;SDS011;40566;50.006;36.180;2022-07-12T11:16:16;3.13;;;1.00;;
54665;SDS011;40566;50.006;36.180;2022-07-12T11:21:17;3.38;;;1.08;;
54665;SDS011;40566;50.006;36.180;2022-07-12T11:26:18;1.35;;;0.70;;
54665;SDS011;40566;50.006;36.180;2022-07-12T11:31:19;1.40;;;0.80;;
54665;SDS011;40566;50.006;36.180;2022-07-12T11:36:24;3.30;;;1.20;;
54665;SDS011;40566;50.006;36.180;2022-07-12T11:41:26;1.15;;;0.93;;
54665;SDS011;40566;50.006;36.180;2022-07-12T11:46:26;2.05;;;1.25;;
54665;SDS011;40566;50.006;36.180;2022-07-12T11:51:27;2.90;;;1.17;;
54665;SDS011;40566;50.006;36.180;2022-07-12T11:56:29;4.03;;;1.20;;
54665;SDS011;40566;50.006;36.180;2022-07-12T12:01:33;3.95;;;1.33;;
54665;SDS011;40566;50.006;36.180;2022-07-12T12:06:33;1.52;;;0.80;;
54665;SDS011;40566;50.006;36.180;2022-07-12T12:11:34;0.88;;;0.65;;
54665;SDS011;40566;50.006;36.180;2022-07-12T12:16:35;1.27;;;0.93;;
54665;SDS011;40566;50.006;36.180;2022-07-12T12:21:36;1.83;;;1.00;;
54665;SDS011;40566;50.006;36.180;2022-07-12T12:26:37;2.22;;;1.10;;
54665;SDS011;40566;50.006;36.180;2022-07-12T12:31:38;5.60;;;1.30;;
54665;SDS011;40566;50.006;36.180;2022-07-12T12:36:39;1.58;;;1.00;;
54665;SDS011;40566;50.006;36.180;2022-07-12T12:41:41;1.17;;;0.95;;
54665;SDS011;40566;50.006;36.180;2022-07-12T12:46:52;2.15;;;1.20;;
54665;SDS011;40566;50.006;36.180;2022-07-12T12:52:16;1.63;;;1.10;;
54665;SDS011;40566;50.006;36.180;2022-07-12T12:57:18;2.55;;;1.40;;
54665;SDS011;40566;50.006;36.180;2022-07-12T13:02:19;1.27;;;0.80;;
54665;SDS011;40566;50.006;36.180;2022-07-12T13:07:21;1.73;;;1.10;;
54665;SDS011;40566;50.006;36.180;2022-07-12T13:12:21;3.90;;;1.20;;
54665;SDS011;40566;50.006;36.180;2022-07-12T13:17:22;3.70;;;1.30;;
54665;SDS011;40566;50.006;36.180;2022-07-12T13:22:23;2.58;;;1.00;;
54665;SDS011;40566;50.006;36.180;2022-07-12T13:27:24;2.78;;;1.00;;
54665;SDS011;40566;50.006;36.180;2022-07-12T13:32:26;1.80;;;0.90;;
54665;SDS011;40566;50.006;36.180;2022-07-12T13:37:27;2.80;;;0.98;;
54665;SDS011;40566;50.006;36.180;2022-07-12T13:42:28;2.25;;;1.00;;
54665;SDS011;40566;50.006;36.180;2022-07-12T13:47:29;1.85;;;0.90;;
54665;SDS011;40566;50.006;36.180;2022-07-12T13:52:30;2.25;;;1.02;;
54665;SDS011;40566;50.006;36.180;2022-07-12T13:57:30;1.48;;;0.90;;
54665;SDS011;40566;50.006;36.180;2022-07-12T14:02:31;2.78;;;1.10;;
54665;SDS011;40566;50.006;36.180;2022-07-12T14:07:32;2.47;;;1.10;;
54665;SDS011;40566;50.006;36.180;2022-07-12T14:12:32;3.25;;;1.20;;
54665;SDS011;40566;50.006;36.180;2022-07-12T14:17:33;3.28;;;1.05;;
54665;SDS011;40566;50.006;36.180;2022-07-12T14:22:34;1.30;;;0.90;;
54665;SDS011;40566;50.006;36.180;2022-07-12T14:27:36;1.48;;;1.05;;
54665;SDS011;40566;50.006;36.180;2022-07-12T14:32:38;2.00;;;1.00;;
54665;SDS011;40566;50.006;36.180;2022-07-12T14:37:39;1.05;;;0.77;;
54665;SDS011;40566;50.006;36.180;2022-07-12T14:42:41;1.27;;;0.90;;
54665;SDS011;40566;50.006;36.180;2022-07-12T14:47:44;3.17;;;1.10;;
54665;SDS011;40566;50.006;36.180;2022-07-12T14:52:44;2.72;;;0.90;;
54665;SDS011;40566;50.006;36.180;2022-07-12T14:57:45;2.72;;;1.00;;
54665;SDS011;40566;50.006;36.180;2022-07-12T15:02:46;2.92;;;1.10;;
54665;SDS011;40566;50.006;36.180;2022-07-12T15:07:47;1.50;;;0.80;;
54665;SDS011;40566;50.006;36.180;2022-07-12T15:12:48;1.90;;;0.93;;
54665;SDS011;40566;50.006;36.180;2022-07-12T15:17:50;3.20;;;0.80;;
54665;SDS011;40566;50.006;36.180;2022-07-12T15:22:51;2.50;;;1.13;;
54665;SDS011;40566;50.006;36.180;2022-07-12T15:27:51;2.58;;;1.23;;
54665;SDS011;40566;50.006;36.180;2022-07-12T15:32:52;3.65;;;1.23;;
54665;SDS011;40566;50.006;36.180;2022-07-12T15:37:55;4.13;;;1.40;;
54665;SDS011;40566;50.006;36.180;2022-07-12T15:42:55;2.75;;;1.10;;
54665;SDS011;40566;50.006;36.180;2022-07-12T15:47:56;2.53;;;0.93;;
54665;SDS011;40566;50.006;36.180;2022-07-12T15:52:58;4.45;;;1.73;;
54665;SDS011;40566;50.006;36.180;2022-07-12T15:58:17;9.40;;;3.63;;
54665;SDS011;40566;50.006;36.180;2022-07-12T16:03:17;4.95;;;1.75;;
54665;SDS011;40566;50.006;36.180;2022-07-12T16:08:18;4.85;;;1.27;;
54665;SDS011;40566;50.006;36.180;2022-07-12T16:13:19;4.30;;;1.50;;
54665;SDS011;40566;50.006;36.180;2022-07-12T16:18:20;3.75;;;1.02;;
54665;SDS011;40566;50.006;36.180;2022-07-12T16:23:21;3.92;;;1.10;;
54665;SDS011;40566;50.006;36.180;2022-07-12T16:28:22;2.35;;;1.30;;
54665;SDS011;40566;50.006;36.180;2022-07-12T16:33:24;2.75;;;1.13;;
54665;SDS011;40566;50.006;36.180;2022-07-12T16:38:25;3.08;;;1.50;;
54665;SDS011;40566;50.006;36.180;2022-07-12T16:43:26;6.40;;;1.50;;
54665;SDS011;40566;50.006;36.180;2022-07-12T16:48:28;2.60;;;1.20;;
54665;SDS011;40566;50.006;36.180;2022-07-12T16:53:28;4.50;;;1.58;;
54665;SDS011;40566;50.006;36.180;2022-07-12T16:58:29;5.15;;;1.80;;
54665;SDS011;40566;50.006;36.180;2022-07-12T17:03:30;2.53;;;1.40;;
54665;SDS011;40566;50.006;36.180;2022-07-12T17:08:30;3.50;;;1.30;;
54665;SDS011;40566;50.006;36.180;2022-07-12T17:13:31;3.05;;;1.27;;
54665;SDS011;40566;50.006;36.180;2022-07-12T17:18:32;8.68;;;2.22;;
54665;SDS011;40566;50.006;36.180;2022-07-12T17:23:32;7.78;;;2.90;;
54665;SDS011;40566;50.006;36.180;2022-07-12T17:28:33;5.13;;;1.83;;
54665;SDS011;40566;50.006;36.180;2022-07-12T17:33:34;3.53;;;1.63;;
54665;SDS011;40566;50.006;36.180;2022-07-12T17:38:34;6.65;;;1.95;;
54665;SDS011;40566;50.006;36.180;2022-07-12T17:43:36;4.75;;;1.60;;
54665;SDS011;40566;50.006;36.180;2022-07-12T17:48:36;6.13;;;2.00;;
54665;SDS011;40566;50.006;36.180;2022-07-12T17:53:39;4.60;;;1.90;;
54665;SDS011;40566;50.006;36.180;2022-07-12T17:58:40;5.85;;;2.33;;
54665;SDS011;40566;50.006;36.180;2022-07-12T18:03:42;3.85;;;1.73;;
54665;SDS011;40566;50.006;36.180;2022-07-12T18:08:44;15.30;;;4.43;;
54665;SDS011;40566;50.006;36.180;2022-07-12T18:13:45;8.98;;;3.30;;
54665;SDS011;40566;50.006;36.180;2022-07-12T18:19:04;10.20;;;3.58;;
54665;SDS011;40566;50.006;36.180;2022-07-12T18:24:06;9.82;;;3.70;;
54665;SDS011;40566;50.006;36.180;2022-07-12T18:29:06;10.45;;;3.67;;
54665;SDS011;40566;50.006;36.180;2022-07-12T18:34:09;7.07;;;3.15;;
54665;SDS011;40566;50.006;36.180;2022-07-12T18:39:10;7.78;;;3.20;;
54665;SDS011;40566;50.006;36.180;2022-07-12T18:44:12;5.97;;;2.97;;
54665;SDS011;40566;50.006;36.180;2022-07-12T18:49:13;10.20;;;2.72;;
54665;SDS011;40566;50.006;36.180;2022-07-12T18:54:15;8.27;;;2.72;;
54665;SDS011;40566;50.006;36.180;2022-07-12T18:59:16;7.38;;;3.00;;
54665;SDS011;40566;50.006;36.180;2022-07-12T19:04:16;7.55;;;2.88;;
54665;SDS011;40566;50.006;36.180;2022-07-12T19:09:17;8.48;;;2.70;;
54665;SDS011;40566;50.006;36.180;2022-07-12T19:14:18;6.93;;;3.40;;
54665;SDS011;40566;50.006;36.180;2022-07-12T19:19:18;7.15;;;3.00;;
54665;SDS011;40566;50.006;36.180;2022-07-12T19:24:19;7.80;;;2.83;;
54665;SDS011;40566;50.006;36.180;2022-07-12T19:29:20;11.50;;;3.55;;
54665;SDS011;40566;50.006;36.180;2022-07-12T19:34:21;10.07;;;3.20;;
54665;SDS011;40566;50.006;36.180;2022-07-12T19:39:21;6.45;;;2.85;;
54665;SDS011;40566;50.006;36.180;2022-07-12T19:44:22;6.75;;;2.60;;
54665;SDS011;40566;50.006;36.180;2022-07-12T19:49:23;9.38;;;2.92;;
54665;SDS011;40566;50.006;36.180;2022-07-12T19:54:23;7.38;;;2.47;;
54665;SDS011;40566;50.006;36.180;2022-07-12T19:59:24;6.32;;;2.72;;
54665;SDS011;40566;50.006;36.180;2022-07-12T20:04:27;7.13;;;2.80;;
54665;SDS011;40566;50.006;36.180;2022-07-12T20:09:30;6.35;;;2.42;;
54665;SDS011;40566;50.006;36.180;2022-07-12T20:14:31;8.07;;;2.67;;
54665;SDS011;40566;50.006;36.180;2022-07-12T20:19:32;7.43;;;2.85;;
54665;SDS011;40566;50.006;36.180;2022-07-12T20:24:33;8.77;;;2.97;;
54665;SDS011;40566;50.006;36.180;2022-07-12T20:29:33;6.80;;;2.65;;
54665;SDS011;40566;50.006;36.180;2022-07-12T20:34:34;11.88;;;2.70;;
54665;SDS011;40566;50.006;36.180;2022-07-12T20:39:35;6.30;;;2.47;;
54665;SDS011;40566;50.006;36.180;2022-07-12T20:44:36;6.15;;;2.42;;
54665;SDS011;40566;50.006;36.180;2022-07-12T20:49:38;5.05;;;2.38;;
54665;SDS011;40566;50.006;36.180;2022-07-12T20:54:38;6.43;;;2.60;;
54665;SDS011;40566;50.006;36.180;2022-07-12T20:59:39;7.85;;;3.22;;
54665;SDS011;40566;50.006;36.180;2022-07-12T21:04:40;8.70;;;2.50;;
54665;SDS011;40566;50.006;36.180;2022-07-12T21:09:40;4.75;;;2.42;;
54665;SDS011;40566;50.006;36.180;2022-07-12T21:14:41;6.72;;;2.65;;
54665;SDS011;40566;50.006;36.180;2022-07-12T21:19:42;7.00;;;2.95;;
54665;SDS011;40566;50.006;36.180;2022-07-12T21:24:42;11.07;;;3.92;;
54665;SDS011;40566;50.006;36.180;2022-07-12T21:29:43;7.30;;;2.95;;
54665;SDS011;40566;50.006;36.180;2022-07-12T21:34:44;4.68;;;2.13;;
54665;SDS011;40566;50.006;36.180;2022-07-12T21:39:45;5.63;;;2.35;;
54665;SDS011;40566;50.006;36.180;2022-07-12T21:44:45;3.95;;;1.83;;
54665;SDS011;40566;50.006;36.180;2022-07-12T21:49:46;6.35;;;2.33;;
54665;SDS011;40566;50.006;36.180;2022-07-12T21:54:47;5.97;;;2.22;;
54665;SDS011;40566;50.006;36.180;2022-07-12T21:59:47;4.75;;;2.13;;
54665;SDS011;40566;50.006;36.180;2022-07-12T22:04:48;4.18;;;1.90;;
54665;SDS011;40566;50.006;36.180;2022-07-12T22:09:49;5.65;;;2.40;;
54665;SDS011;40566;50.006;36.180;2022-07-12T22:14:50;5.20;;;2.03;;
54665;SDS011;40566;50.006;36.180;2022-07-12T22:19:50;6.25;;;2.10;;
54665;SDS011;40566;50.006;36.180;2022-07-12T22:24:51;5.80;;;2.05;;
54665;SDS011;40566;50.006;36.180;2022-07-12T22:29:51;5.47;;;1.80;;
54665;SDS011;40566;50.006;36.180;2022-07-12T22:34:52;4.05;;;1.92;;
54665;SDS011;40566;50.006;36.180;2022-07-12T22:39:52;3.92;;;1.80;;
54665;SDS011;40566;50.006;36.180;2022-07-12T22:44:53;7.20;;;1.85;;
54665;SDS011;40566;50.006;36.180;2022-07-12T22:49:54;4.20;;;1.83;;
54665;SDS011;40566;50.006;36.180;2022-07-12T22:54:54;4.70;;;2.05;;
54665;SDS011;40566;50.006;36.180;2022-07-12T22:59:55;4.03;;;1.80;;
54665;SDS011;40566;50.006;36.180;2022-07-12T23:04:56;3.80;;;2.10;;
54665;SDS011;40566;50.006;36.180;2022-07-12T23:09:57;4.88;;;2.00;;
54665;SDS011;40566;50.006;36.180;2022-07-12T23:14:58;6.22;;;2.00;;
54665;SDS011;40566;50.006;36.180;2022-07-12T23:19:59;4.35;;;1.95;;
54665;SDS011;40566;50.006;36.180;2022-07-12T23:24:59;6.68;;;2.35;;
54665;SDS011;40566;50.006;36.180;2022-07-12T23:30:00;4.88;;;2.42;;
54665;SDS011;40566;50.006;36.180;2022-07-12T23:35:01;6.10;;;2.60;;
54665;SDS011;40566;50.006;36.180;2022-07-12T23:40:02;7.03;;;3.03;;
54665;SDS011;40566;50.006;36.180;2022-07-12T23:45:03;6.13;;;2.97;;
54665;SDS011;40566;50.006;36.180;2022-07-12T23:50:05;7.25;;;3.25;;
54665;SDS011;40566;50.006;36.180;2022-07-12T23:55:07;6.15;;;3.20;;
